AAL3973 MMSD-KPHX
Flight info
| Callsign | AAL3973 |
|---|---|
| Flight time | 1h 50m |
| Altitude | 36000 |
| Route | ANEGO1B ANEGO DCT LTO DCT HMO J92 TUS DCT HOTTT PINNG1 |
| Aircraft | A320/M-SDE3FGHIRWY/LB1 |
Departure
| Time | 2026-05-01 11:48 |
|---|---|
| Airport | Los Cabos International Airport (MMSD) |
Arrival
| Time | 2026-05-01 13:38 |
|---|---|
| Airport | Phoenix Sky Harbor International Airport (KPHX) |
| Time | Latitude | Longitude | Altitude | Speed | Heading |
|---|---|---|---|---|---|
| 2026-05-01 11:21 | 23.15599 | -109.71767 | 374 ft | 0 kts | 84° |
| 2026-05-01 11:41 | 23.15597 | -109.71781 | 371 ft | 4 kts | 88° |
| 2026-05-01 11:42 | 23.15599 | -109.71810 | 368 ft | 4 kts | 110° |
| 2026-05-01 11:42 | 23.15613 | -109.71830 | 372 ft | 4 kts | 166° |
| 2026-05-01 11:42 | 23.15618 | -109.71831 | 371 ft | 0 kts | 175° |
| 2026-05-01 11:44 | 23.15607 | -109.71830 | 369 ft | 4 kts | 175° |
| 2026-05-01 11:44 | 23.15569 | -109.71826 | 369 ft | 8 kts | 175° |
| 2026-05-01 11:44 | 23.15500 | -109.71839 | 369 ft | 13 kts | 218° |
| 2026-05-01 11:44 | 23.15422 | -109.71892 | 370 ft | 16 kts | 179° |
| 2026-05-01 11:45 | 23.15298 | -109.71879 | 362 ft | 20 kts | 173° |
| 2026-05-01 11:45 | 23.15139 | -109.71861 | 361 ft | 25 kts | 174° |
| 2026-05-01 11:45 | 23.14951 | -109.71840 | 359 ft | 29 kts | 174° |
| 2026-05-01 11:45 | 23.14756 | -109.71816 | 355 ft | 26 kts | 173° |
| 2026-05-01 11:46 | 23.14571 | -109.71795 | 351 ft | 28 kts | 174° |
| 2026-05-01 11:46 | 23.14407 | -109.71779 | 345 ft | 23 kts | 174° |
| 2026-05-01 11:46 | 23.14232 | -109.71758 | 337 ft | 27 kts | 174° |
| 2026-05-01 11:46 | 23.14044 | -109.71736 | 333 ft | 27 kts | 174° |
| 2026-05-01 11:47 | 23.13938 | -109.71789 | 333 ft | 18 kts | 266° |
| 2026-05-01 11:47 | 23.13929 | -109.71895 | 333 ft | 9 kts | 269° |
| 2026-05-01 11:47 | 23.13979 | -109.71935 | 332 ft | 7 kts | 353° |
| 2026-05-01 11:47 | 23.13982 | -109.71936 | 332 ft | 0 kts | 354° |
| 2026-05-01 11:48 | 23.14229 | -109.71965 | 337 ft | 72 kts | 354° |
| 2026-05-01 11:48 | 23.14931 | -109.72045 | 356 ft | 127 kts | 354° |
| 2026-05-01 11:48 | 23.15941 | -109.72154 | 563 ft | 153 kts | 354° |
| 2026-05-01 11:48 | 23.17009 | -109.72268 | 1156 ft | 154 kts | 354° |
| 2026-05-01 11:49 | 23.18075 | -109.72390 | 1766 ft | 154 kts | 352° |
| 2026-05-01 11:49 | 23.19148 | -109.72516 | 2249 ft | 160 kts | 353° |
| 2026-05-01 11:49 | 23.20331 | -109.72655 | 2470 ft | 182 kts | 353° |
| 2026-05-01 11:49 | 23.21673 | -109.72810 | 2689 ft | 206 kts | 353° |
| 2026-05-01 11:50 | 23.23185 | -109.72983 | 2969 ft | 231 kts | 353° |
| 2026-05-01 11:50 | 23.24866 | -109.73175 | 3346 ft | 255 kts | 353° |
| 2026-05-01 11:50 | 23.26685 | -109.73384 | 3987 ft | 267 kts | 353° |
| 2026-05-01 11:50 | 23.28551 | -109.73597 | 4857 ft | 272 kts | 352° |
| 2026-05-01 11:51 | 23.30445 | -109.73814 | 5745 ft | 275 kts | 352° |
| 2026-05-01 11:51 | 23.32360 | -109.74030 | 6610 ft | 278 kts | 351° |
| 2026-05-01 11:51 | 23.34276 | -109.74355 | 7407 ft | 279 kts | 339° |
| 2026-05-01 11:51 | 23.36006 | -109.75275 | 8197 ft | 276 kts | 319° |
| 2026-05-01 11:52 | 23.37347 | -109.76741 | 8999 ft | 273 kts | 300° |
| 2026-05-01 11:52 | 23.38203 | -109.78561 | 9847 ft | 270 kts | 289° |
| 2026-05-01 11:52 | 23.38942 | -109.80446 | 10632 ft | 272 kts | 289° |
| 2026-05-01 11:52 | 23.39716 | -109.82399 | 10962 ft | 292 kts | 289° |
| 2026-05-01 11:53 | 23.40551 | -109.84506 | 11112 ft | 314 kts | 289° |
| 2026-05-01 11:53 | 23.41435 | -109.86723 | 11608 ft | 323 kts | 289° |
| 2026-05-01 11:53 | 23.42339 | -109.88981 | 12236 ft | 328 kts | 289° |
| 2026-05-01 11:53 | 23.43258 | -109.91269 | 12891 ft | 331 kts | 289° |
| 2026-05-01 11:54 | 23.44190 | -109.93587 | 13550 ft | 336 kts | 289° |
| 2026-05-01 11:54 | 23.45129 | -109.95923 | 14093 ft | 339 kts | 289° |
| 2026-05-01 11:54 | 23.46075 | -109.98286 | 14622 ft | 342 kts | 289° |
| 2026-05-01 11:54 | 23.47027 | -110.00667 | 15231 ft | 344 kts | 289° |
| 2026-05-01 11:55 | 23.47984 | -110.03064 | 15851 ft | 346 kts | 289° |
| 2026-05-01 11:55 | 23.48947 | -110.05482 | 16442 ft | 348 kts | 289° |
| 2026-05-01 11:55 | 23.49912 | -110.07907 | 17047 ft | 350 kts | 289° |
| 2026-05-01 11:55 | 23.50886 | -110.10351 | 17657 ft | 353 kts | 289° |
| 2026-05-01 11:56 | 23.51865 | -110.12813 | 18262 ft | 355 kts | 289° |
| 2026-05-01 11:56 | 23.52851 | -110.15292 | 18784 ft | 358 kts | 290° |
| 2026-05-01 11:56 | 23.54091 | -110.17672 | 19313 ft | 366 kts | 300° |
| 2026-05-01 11:56 | 23.55794 | -110.19779 | 19867 ft | 374 kts | 310° |
| 2026-05-01 11:57 | 23.57633 | -110.21743 | 20427 ft | 376 kts | 309° |
| 2026-05-01 11:57 | 23.59504 | -110.23752 | 20986 ft | 378 kts | 309° |
| 2026-05-01 11:57 | 23.61374 | -110.25775 | 21529 ft | 380 kts | 309° |
| 2026-05-01 11:57 | 23.63254 | -110.27815 | 22064 ft | 382 kts | 309° |
| 2026-05-01 11:58 | 23.65145 | -110.29867 | 22657 ft | 383 kts | 309° |
| 2026-05-01 11:58 | 23.67038 | -110.31921 | 23199 ft | 385 kts | 309° |
| 2026-05-01 11:58 | 23.70857 | -110.36058 | 24086 ft | 389 kts | 309° |
| 2026-05-01 11:59 | 23.72780 | -110.38140 | 24492 ft | 391 kts | 309° |
| 2026-05-01 11:59 | 23.74716 | -110.40237 | 24891 ft | 393 kts | 309° |
| 2026-05-01 11:59 | 23.76658 | -110.42342 | 25289 ft | 394 kts | 309° |
| 2026-05-01 12:00 | 23.80565 | -110.46589 | 26054 ft | 398 kts | 309° |
| 2026-05-01 12:00 | 23.82533 | -110.48727 | 26430 ft | 400 kts | 309° |
| 2026-05-01 12:00 | 23.86495 | -110.53029 | 27157 ft | 404 kts | 309° |
| 2026-05-01 12:01 | 23.88592 | -110.55105 | 27510 ft | 411 kts | 316° |
| 2026-05-01 12:01 | 23.91042 | -110.56803 | 27905 ft | 423 kts | 326° |
| 2026-05-01 12:01 | 23.93806 | -110.58026 | 28266 ft | 433 kts | 333° |
| 2026-05-01 12:01 | 23.96636 | -110.59065 | 28614 ft | 435 kts | 333° |
| 2026-05-01 12:02 | 23.99511 | -110.60122 | 28976 ft | 437 kts | 333° |
| 2026-05-01 12:02 | 24.02402 | -110.61188 | 29319 ft | 439 kts | 333° |
| 2026-05-01 12:02 | 24.05305 | -110.62261 | 29663 ft | 441 kts | 333° |
| 2026-05-01 12:02 | 24.08216 | -110.63344 | 29994 ft | 443 kts | 333° |
| 2026-05-01 12:03 | 24.11144 | -110.64435 | 30270 ft | 445 kts | 333° |
| 2026-05-01 12:03 | 24.14081 | -110.65528 | 30558 ft | 447 kts | 333° |
| 2026-05-01 12:03 | 24.17022 | -110.66620 | 30915 ft | 446 kts | 333° |
| 2026-05-01 12:03 | 24.19954 | -110.67707 | 31390 ft | 443 kts | 332° |
| 2026-05-01 12:04 | 24.22864 | -110.68785 | 31867 ft | 440 kts | 332° |
| 2026-05-01 12:04 | 24.25755 | -110.69856 | 32312 ft | 438 kts | 332° |
| 2026-05-01 12:04 | 24.28637 | -110.70925 | 32755 ft | 436 kts | 332° |
| 2026-05-01 12:04 | 24.31512 | -110.71994 | 33191 ft | 435 kts | 332° |
| 2026-05-01 12:05 | 24.34372 | -110.73057 | 33637 ft | 433 kts | 332° |
| 2026-05-01 12:05 | 24.40064 | -110.75177 | 34450 ft | 431 kts | 332° |
| 2026-05-01 12:05 | 24.42895 | -110.76233 | 34831 ft | 429 kts | 332° |
| 2026-05-01 12:06 | 24.45712 | -110.77289 | 35201 ft | 427 kts | 332° |
| 2026-05-01 12:06 | 24.48518 | -110.78341 | 35602 ft | 426 kts | 331° |
| 2026-05-01 12:06 | 24.51321 | -110.79391 | 35869 ft | 425 kts | 331° |
| 2026-05-01 12:06 | 24.54118 | -110.80441 | 35930 ft | 425 kts | 331° |
| 2026-05-01 12:07 | 24.59717 | -110.82541 | 35933 ft | 425 kts | 332° |
| 2026-05-01 12:07 | 24.65316 | -110.84632 | 35937 ft | 425 kts | 332° |
| 2026-05-01 12:08 | 24.70912 | -110.86729 | 35933 ft | 425 kts | 332° |
| 2026-05-01 12:08 | 24.75561 | -110.88479 | 35975 ft | 425 kts | 331° |
| 2026-05-01 12:09 | 24.82043 | -110.90915 | 35957 ft | 423 kts | 330° |
| 2026-05-01 12:09 | 24.87613 | -110.93008 | 35954 ft | 423 kts | 331° |
| 2026-05-01 12:10 | 24.95056 | -110.95809 | 35953 ft | 423 kts | 331° |
| 2026-05-01 12:11 | 25.03419 | -110.98954 | 35985 ft | 423 kts | 330° |
| 2026-05-01 12:11 | 25.08964 | -111.01048 | 35973 ft | 421 kts | 330° |
| 2026-05-01 12:12 | 25.14466 | -111.03130 | 35969 ft | 421 kts | 330° |
| 2026-05-01 12:12 | 25.20000 | -111.05219 | 35963 ft | 420 kts | 330° |
| 2026-05-01 12:13 | 25.25537 | -111.07311 | 35958 ft | 420 kts | 330° |
| 2026-05-01 12:13 | 25.31070 | -111.09414 | 35976 ft | 421 kts | 330° |
| 2026-05-01 12:14 | 25.36603 | -111.11512 | 35965 ft | 420 kts | 330° |
| 2026-05-01 12:14 | 25.42132 | -111.13604 | 35956 ft | 420 kts | 330° |
| 2026-05-01 12:15 | 25.47656 | -111.15705 | 35961 ft | 420 kts | 330° |
| 2026-05-01 12:15 | 25.53179 | -111.17811 | 35946 ft | 420 kts | 330° |
| 2026-05-01 12:16 | 25.58707 | -111.19907 | 35969 ft | 419 kts | 330° |
| 2026-05-01 12:16 | 25.64212 | -111.21998 | 35946 ft | 417 kts | 330° |
| 2026-05-01 12:17 | 25.69722 | -111.24102 | 35941 ft | 420 kts | 330° |
| 2026-05-01 12:17 | 25.75249 | -111.26211 | 35937 ft | 420 kts | 330° |
| 2026-05-01 12:18 | 25.80770 | -111.28324 | 35955 ft | 420 kts | 330° |
| 2026-05-01 12:18 | 25.86255 | -111.30424 | 35967 ft | 420 kts | 330° |
| 2026-05-01 12:19 | 25.91764 | -111.32534 | 35937 ft | 418 kts | 330° |
| 2026-05-01 12:19 | 25.97380 | -111.34414 | 35926 ft | 432 kts | 340° |
| 2026-05-01 12:20 | 26.00418 | -111.34703 | 35925 ft | 447 kts | 349° |
| 2026-05-01 12:20 | 26.03557 | -111.34469 | 35926 ft | 455 kts | 354° |
| 2026-05-01 12:20 | 26.09876 | -111.33849 | 35921 ft | 455 kts | 354° |
| 2026-05-01 12:21 | 26.16191 | -111.33259 | 35926 ft | 455 kts | 353° |
| 2026-05-01 12:21 | 26.22508 | -111.32677 | 35927 ft | 456 kts | 353° |
| 2026-05-01 12:22 | 26.28828 | -111.32090 | 35927 ft | 456 kts | 353° |
| 2026-05-01 12:22 | 26.35153 | -111.31503 | 35929 ft | 456 kts | 353° |
| 2026-05-01 12:23 | 26.41480 | -111.30910 | 35948 ft | 456 kts | 354° |
| 2026-05-01 12:23 | 26.47804 | -111.30317 | 35943 ft | 456 kts | 354° |
| 2026-05-01 12:24 | 26.54082 | -111.29728 | 35936 ft | 456 kts | 354° |
| 2026-05-01 12:24 | 26.60405 | -111.29132 | 35933 ft | 456 kts | 354° |
| 2026-05-01 12:25 | 26.69887 | -111.28246 | 35930 ft | 456 kts | 354° |
| 2026-05-01 12:26 | 26.76207 | -111.27649 | 35930 ft | 455 kts | 354° |
| 2026-05-01 12:26 | 26.85665 | -111.26744 | 35925 ft | 455 kts | 354° |
| 2026-05-01 12:27 | 26.95125 | -111.25861 | 35923 ft | 455 kts | 354° |
| 2026-05-01 12:28 | 27.04586 | -111.24969 | 35949 ft | 455 kts | 355° |
| 2026-05-01 12:29 | 27.14051 | -111.24071 | 35932 ft | 455 kts | 355° |
| 2026-05-01 12:29 | 27.23475 | -111.23174 | 35930 ft | 455 kts | 355° |
| 2026-05-01 12:30 | 27.32938 | -111.22276 | 35954 ft | 455 kts | 355° |
| 2026-05-01 12:31 | 27.39237 | -111.21676 | 35943 ft | 454 kts | 355° |
| 2026-05-01 12:31 | 27.45528 | -111.21078 | 35935 ft | 454 kts | 355° |
| 2026-05-01 12:32 | 27.51814 | -111.20473 | 35927 ft | 453 kts | 355° |
| 2026-05-01 12:32 | 27.61239 | -111.19580 | 35946 ft | 453 kts | 355° |
| 2026-05-01 12:33 | 27.67518 | -111.18975 | 35935 ft | 453 kts | 356° |
| 2026-05-01 12:33 | 27.73795 | -111.18375 | 35933 ft | 453 kts | 355° |
| 2026-05-01 12:34 | 27.80073 | -111.17777 | 35928 ft | 453 kts | 355° |
| 2026-05-01 12:34 | 27.86351 | -111.17178 | 35956 ft | 453 kts | 356° |
| 2026-05-01 12:35 | 27.92615 | -111.16571 | 35925 ft | 451 kts | 356° |
| 2026-05-01 12:35 | 27.98871 | -111.15973 | 35924 ft | 451 kts | 356° |
| 2026-05-01 12:36 | 28.05126 | -111.15373 | 35924 ft | 451 kts | 356° |
| 2026-05-01 12:36 | 28.11387 | -111.14768 | 35923 ft | 451 kts | 356° |
| 2026-05-01 12:37 | 28.17648 | -111.14162 | 35943 ft | 452 kts | 356° |
| 2026-05-01 12:37 | 28.23870 | -111.13558 | 35941 ft | 452 kts | 356° |
| 2026-05-01 12:38 | 28.30136 | -111.12953 | 35940 ft | 452 kts | 356° |
| 2026-05-01 12:38 | 28.36399 | -111.12346 | 35935 ft | 451 kts | 356° |
| 2026-05-01 12:39 | 28.42663 | -111.11732 | 35967 ft | 451 kts | 356° |
| 2026-05-01 12:39 | 28.48916 | -111.11121 | 35953 ft | 451 kts | 356° |
| 2026-05-01 12:40 | 28.55162 | -111.10524 | 35943 ft | 450 kts | 356° |
| 2026-05-01 12:40 | 28.61396 | -111.09920 | 35938 ft | 450 kts | 356° |
| 2026-05-01 12:41 | 28.67635 | -111.09312 | 35933 ft | 450 kts | 356° |
| 2026-05-01 12:41 | 28.73868 | -111.08701 | 35953 ft | 450 kts | 356° |
| 2026-05-01 12:42 | 28.80101 | -111.08087 | 35947 ft | 449 kts | 356° |
| 2026-05-01 12:42 | 28.86327 | -111.07476 | 35947 ft | 449 kts | 356° |
| 2026-05-01 12:43 | 28.92549 | -111.06872 | 35941 ft | 449 kts | 356° |
| 2026-05-01 12:43 | 28.98774 | -111.06263 | 35946 ft | 449 kts | 357° |
| 2026-05-01 12:44 | 29.05002 | -111.05652 | 35951 ft | 449 kts | 356° |
| 2026-05-01 12:45 | 29.17398 | -111.04730 | 35943 ft | 446 kts | 353° |
| 2026-05-01 12:45 | 29.23593 | -111.04552 | 35944 ft | 445 kts | 353° |
| 2026-05-01 12:46 | 29.29779 | -111.04332 | 35938 ft | 444 kts | 354° |
| 2026-05-01 12:46 | 29.35952 | -111.04049 | 35933 ft | 444 kts | 354° |
| 2026-05-01 12:47 | 29.42130 | -111.03755 | 35932 ft | 444 kts | 354° |
| 2026-05-01 12:47 | 29.48306 | -111.03472 | 35930 ft | 444 kts | 354° |
| 2026-05-01 12:48 | 29.54484 | -111.03189 | 35952 ft | 444 kts | 354° |
| 2026-05-01 12:48 | 29.60651 | -111.02914 | 35943 ft | 443 kts | 354° |
| 2026-05-01 12:49 | 29.66812 | -111.02638 | 35935 ft | 443 kts | 354° |
| 2026-05-01 12:49 | 29.72966 | -111.02368 | 35932 ft | 442 kts | 354° |
| 2026-05-01 12:50 | 29.79076 | -111.02095 | 35932 ft | 442 kts | 354° |
| 2026-05-01 12:50 | 29.85246 | -111.01817 | 35937 ft | 440 kts | 354° |
| 2026-05-01 12:51 | 29.91320 | -111.01545 | 35933 ft | 440 kts | 354° |
| 2026-05-01 12:52 | 30.00493 | -111.01137 | 35928 ft | 440 kts | 354° |
| 2026-05-01 12:52 | 30.09664 | -111.00716 | 35952 ft | 440 kts | 354° |
| 2026-05-01 12:53 | 30.18825 | -111.00301 | 35939 ft | 439 kts | 354° |
| 2026-05-01 12:54 | 30.24924 | -111.00033 | 35935 ft | 439 kts | 354° |
| 2026-05-01 12:54 | 30.34076 | -110.99616 | 35953 ft | 438 kts | 354° |
| 2026-05-01 12:55 | 30.43171 | -110.99202 | 35924 ft | 436 kts | 354° |
| 2026-05-01 12:56 | 30.49234 | -110.98926 | 35924 ft | 436 kts | 354° |
| 2026-05-01 12:56 | 30.55299 | -110.98644 | 35923 ft | 436 kts | 354° |
| 2026-05-01 12:57 | 30.61368 | -110.98347 | 35941 ft | 436 kts | 354° |
| 2026-05-01 12:57 | 30.70462 | -110.97905 | 35927 ft | 436 kts | 354° |
| 2026-05-01 12:58 | 30.75501 | -110.97662 | 35927 ft | 436 kts | 354° |
| 2026-05-01 12:59 | 30.84601 | -110.97208 | 35922 ft | 436 kts | 354° |
| 2026-05-01 12:59 | 30.93678 | -110.96802 | 35934 ft | 435 kts | 354° |
| 2026-05-01 13:00 | 31.02741 | -110.96393 | 35918 ft | 434 kts | 354° |
| 2026-05-01 13:01 | 31.11802 | -110.95980 | 35935 ft | 434 kts | 354° |
| 2026-05-01 13:02 | 31.20850 | -110.95560 | 35988 ft | 433 kts | 354° |
| 2026-05-01 13:07 | 31.86609 | -110.92556 | 35945 ft | 429 kts | 354° |
| 2026-05-01 13:08 | 31.92581 | -110.92270 | 35954 ft | 432 kts | 354° |
| 2026-05-01 13:08 | 31.95631 | -110.92133 | 35719 ft | 443 kts | 354° |
| 2026-05-01 13:08 | 31.98736 | -110.91994 | 35478 ft | 448 kts | 354° |
| 2026-05-01 13:08 | 32.01860 | -110.91851 | 35264 ft | 450 kts | 354° |
| 2026-05-01 13:09 | 32.04989 | -110.91704 | 35031 ft | 450 kts | 355° |
| 2026-05-01 13:09 | 32.08109 | -110.91597 | 34793 ft | 445 kts | 351° |
| 2026-05-01 13:09 | 32.11149 | -110.91912 | 34147 ft | 434 kts | 343° |
| 2026-05-01 13:09 | 32.14070 | -110.92658 | 33001 ft | 426 kts | 341° |
| 2026-05-01 13:10 | 32.16916 | -110.93440 | 32295 ft | 412 kts | 341° |
| 2026-05-01 13:10 | 32.19646 | -110.94189 | 31781 ft | 395 kts | 341° |
| 2026-05-01 13:10 | 32.22279 | -110.94908 | 31246 ft | 381 kts | 341° |
| 2026-05-01 13:10 | 32.24833 | -110.95603 | 30728 ft | 375 kts | 341° |
| 2026-05-01 13:11 | 32.27377 | -110.96299 | 30212 ft | 376 kts | 341° |
| 2026-05-01 13:11 | 32.29930 | -110.97000 | 29620 ft | 377 kts | 341° |
| 2026-05-01 13:11 | 32.32480 | -110.97697 | 29089 ft | 375 kts | 341° |
| 2026-05-01 13:11 | 32.35019 | -110.98385 | 28550 ft | 374 kts | 342° |
| 2026-05-01 13:12 | 32.37555 | -110.99070 | 28025 ft | 373 kts | 342° |
| 2026-05-01 13:12 | 32.40080 | -110.99754 | 27506 ft | 372 kts | 342° |
| 2026-05-01 13:12 | 32.42601 | -111.00439 | 26988 ft | 372 kts | 342° |
| 2026-05-01 13:12 | 32.45126 | -111.01128 | 26480 ft | 372 kts | 342° |
| 2026-05-01 13:13 | 32.47616 | -111.01807 | 25971 ft | 372 kts | 342° |
| 2026-05-01 13:13 | 32.50139 | -111.02495 | 25478 ft | 372 kts | 342° |
| 2026-05-01 13:13 | 32.52593 | -111.03391 | 24982 ft | 367 kts | 333° |
| 2026-05-01 13:13 | 32.54860 | -111.04816 | 24608 ft | 365 kts | 324° |
| 2026-05-01 13:14 | 32.56984 | -111.06423 | 24256 ft | 368 kts | 324° |
| 2026-05-01 13:14 | 32.59147 | -111.08049 | 23893 ft | 368 kts | 324° |
| 2026-05-01 13:14 | 32.61308 | -111.09664 | 23537 ft | 367 kts | 324° |
| 2026-05-01 13:14 | 32.63461 | -111.11272 | 23123 ft | 365 kts | 324° |
| 2026-05-01 13:15 | 32.65603 | -111.12874 | 22766 ft | 362 kts | 324° |
| 2026-05-01 13:15 | 32.67725 | -111.14463 | 22394 ft | 359 kts | 325° |
| 2026-05-01 13:15 | 32.69830 | -111.16043 | 22043 ft | 357 kts | 325° |
| 2026-05-01 13:15 | 32.71925 | -111.17618 | 21699 ft | 355 kts | 325° |
| 2026-05-01 13:16 | 32.73924 | -111.19270 | 21355 ft | 346 kts | 317° |
| 2026-05-01 13:16 | 32.75566 | -111.21309 | 20997 ft | 339 kts | 306° |
| 2026-05-01 13:16 | 32.76889 | -111.23619 | 20664 ft | 337 kts | 303° |
| 2026-05-01 13:17 | 32.80784 | -111.30523 | 19655 ft | 333 kts | 304° |
| 2026-05-01 13:17 | 32.82077 | -111.32802 | 19320 ft | 332 kts | 304° |
| 2026-05-01 13:18 | 32.84648 | -111.37341 | 18663 ft | 330 kts | 304° |
| 2026-05-01 13:18 | 32.85923 | -111.39603 | 18323 ft | 329 kts | 304° |
| 2026-05-01 13:18 | 32.87196 | -111.41863 | 17966 ft | 328 kts | 304° |
| 2026-05-01 13:18 | 32.88462 | -111.44116 | 17634 ft | 327 kts | 304° |
| 2026-05-01 13:19 | 32.89707 | -111.46330 | 17445 ft | 316 kts | 304° |
| 2026-05-01 13:19 | 32.90910 | -111.48466 | 17220 ft | 308 kts | 304° |
| 2026-05-01 13:19 | 32.93446 | -111.52496 | 16676 ft | 303 kts | 308° |
| 2026-05-01 13:20 | 32.94773 | -111.54441 | 16427 ft | 303 kts | 309° |
| 2026-05-01 13:20 | 32.96109 | -111.56380 | 16174 ft | 303 kts | 309° |
| 2026-05-01 13:20 | 32.97438 | -111.58322 | 15924 ft | 303 kts | 309° |
| 2026-05-01 13:21 | 33.00076 | -111.62228 | 15461 ft | 302 kts | 309° |
| 2026-05-01 13:21 | 33.01388 | -111.64190 | 15257 ft | 303 kts | 309° |
| 2026-05-01 13:21 | 33.02700 | -111.66156 | 14985 ft | 303 kts | 309° |
| 2026-05-01 13:21 | 33.04010 | -111.68120 | 14705 ft | 303 kts | 309° |
| 2026-05-01 13:22 | 33.05315 | -111.70080 | 14448 ft | 302 kts | 308° |
| 2026-05-01 13:22 | 33.06618 | -111.72038 | 14165 ft | 301 kts | 308° |
| 2026-05-01 13:22 | 33.07902 | -111.73967 | 13822 ft | 302 kts | 309° |
| 2026-05-01 13:22 | 33.09220 | -111.75946 | 13292 ft | 306 kts | 309° |
| 2026-05-01 13:23 | 33.10537 | -111.77924 | 12914 ft | 304 kts | 309° |
| 2026-05-01 13:23 | 33.11855 | -111.79906 | 12540 ft | 302 kts | 309° |
| 2026-05-01 13:23 | 33.13155 | -111.81860 | 12174 ft | 300 kts | 308° |
| 2026-05-01 13:23 | 33.14451 | -111.83811 | 11788 ft | 299 kts | 308° |
| 2026-05-01 13:24 | 33.15743 | -111.85752 | 11435 ft | 298 kts | 308° |
| 2026-05-01 13:24 | 33.17026 | -111.87680 | 11081 ft | 296 kts | 309° |
| 2026-05-01 13:24 | 33.18303 | -111.89598 | 10731 ft | 294 kts | 308° |
| 2026-05-01 13:25 | 33.20825 | -111.93402 | 10127 ft | 288 kts | 308° |
| 2026-05-01 13:25 | 33.22031 | -111.95225 | 9927 ft | 272 kts | 308° |
| 2026-05-01 13:25 | 33.23190 | -111.96980 | 9445 ft | 266 kts | 308° |
| 2026-05-01 13:25 | 33.24332 | -111.98703 | 8886 ft | 264 kts | 308° |
| 2026-05-01 13:26 | 33.25470 | -112.00416 | 8293 ft | 263 kts | 308° |
| 2026-05-01 13:26 | 33.26596 | -112.02115 | 7800 ft | 258 kts | 308° |
| 2026-05-01 13:26 | 33.27703 | -112.03782 | 7362 ft | 254 kts | 308° |
| 2026-05-01 13:26 | 33.28790 | -112.05422 | 7038 ft | 246 kts | 308° |
| 2026-05-01 13:27 | 33.29802 | -112.06952 | 7010 ft | 224 kts | 308° |
| 2026-05-01 13:27 | 33.30648 | -112.08467 | 7015 ft | 218 kts | 295° |
| 2026-05-01 13:27 | 33.31890 | -112.11710 | 7023 ft | 218 kts | 295° |
| 2026-05-01 13:28 | 33.33175 | -112.15024 | 7015 ft | 221 kts | 295° |
| 2026-05-01 13:28 | 33.33815 | -112.16691 | 7009 ft | 221 kts | 292° |
| 2026-05-01 13:29 | 33.34187 | -112.20318 | 7014 ft | 222 kts | 270° |
| 2026-05-01 13:29 | 33.34180 | -112.24019 | 7022 ft | 222 kts | 271° |
| 2026-05-01 13:30 | 33.34180 | -112.31420 | 7036 ft | 222 kts | 271° |
| 2026-05-01 13:31 | 33.34180 | -112.35117 | 7039 ft | 223 kts | 271° |
| 2026-05-01 13:31 | 33.37003 | -112.38319 | 6493 ft | 219 kts | 14° |
| 2026-05-01 13:32 | 33.39197 | -112.35908 | 6076 ft | 222 kts | 51° |
| 2026-05-01 13:33 | 33.42084 | -112.31558 | 5450 ft | 222 kts | 50° |
| 2026-05-01 13:33 | 33.43839 | -112.28552 | 5039 ft | 220 kts | 71° |
| 2026-05-01 13:34 | 33.44087 | -112.24961 | 4576 ft | 213 kts | 91° |
| 2026-05-01 13:34 | 33.44082 | -112.21537 | 4104 ft | 200 kts | 91° |
| 2026-05-01 13:35 | 33.44085 | -112.18242 | 3587 ft | 195 kts | 90° |
| 2026-05-01 13:35 | 33.44085 | -112.16634 | 3353 ft | 192 kts | 90° |
| 2026-05-01 13:35 | 33.44087 | -112.13547 | 2877 ft | 173 kts | 90° |
| 2026-05-01 13:36 | 33.44087 | -112.12209 | 2663 ft | 151 kts | 90° |
| 2026-05-01 13:36 | 33.44087 | -112.10993 | 2472 ft | 143 kts | 91° |
| 2026-05-01 13:36 | 33.44087 | -112.08664 | 2125 ft | 138 kts | 91° |
| 2026-05-01 13:37 | 33.44087 | -112.07517 | 1957 ft | 138 kts | 91° |
| 2026-05-01 13:37 | 33.44087 | -112.06760 | 1844 ft | 137 kts | 90° |
| 2026-05-01 13:37 | 33.44086 | -112.05247 | 1607 ft | 135 kts | 91° |
| 2026-05-01 13:37 | 33.44086 | -112.04128 | 1441 ft | 134 kts | 90° |
| 2026-05-01 13:38 | 33.44081 | -112.01946 | 1128 ft | 116 kts | 90° |
| 2026-05-01 13:38 | 33.44085 | -112.01182 | 1131 ft | 67 kts | 90° |
| 2026-05-01 13:38 | 33.44070 | -112.00772 | 1131 ft | 28 kts | 119° |
| 2026-05-01 13:39 | 33.43941 | -112.00735 | 1120 ft | 18 kts | 180° |
| 2026-05-01 13:39 | 33.43825 | -112.00735 | 1114 ft | 12 kts | 181° |
| 2026-05-01 13:39 | 33.43758 | -112.00735 | 1122 ft | 9 kts | 178° |
| 2026-05-01 13:39 | 33.43702 | -112.00733 | 1124 ft | 9 kts | 178° |
| 2026-05-01 13:40 | 33.43663 | -112.00782 | 1117 ft | 10 kts | 263° |
| 2026-05-01 13:40 | 33.43663 | -112.00822 | 1124 ft | 0 kts | 270° |
| 2026-05-01 13:40 | 33.43663 | -112.00825 | 1124 ft | 0 kts | 270° |